Time;durP1;ratioP1;P1;durP2;ratioP2;P2;SDS_P1;SDS_P2;PMS_P1;PMS_P2;Temp;Humidity;BMP_temperature;BMP_pressure;BME280_temperature;BME280_humidity;BME280_pressure;Samples;Min_cycle;Max_cycle;Signal;HPM_P1;HPM_P2
2022/06/03 05:00:08;;;;;;;;;5.00;5.00;;;;;18.76;43.78;101240.31;2349059;26;45431;-82
2022/06/03 05:01:49;;;;;;;;;4.25;4.25;;;;;18.80;43.40;101243.63;2406569;28;45289;-82
2022/06/03 05:03:22;;;;;;;;;5.75;5.75;;;;;18.84;43.70;101239.88;2402415;28;45441;-82
2022/06/03 05:05:23;;;;;;;;;6.25;5.25;;;;;18.86;43.85;101245.94;2402878;28;45141;-82
2022/06/03 05:06:55;;;;;;;;;4.75;4.75;;;;;18.91;43.41;101246.53;2404424;28;45602;-81
2022/06/03 05:08:17;;;;;;;;;3.50;3.50;;;;;18.95;43.15;101247.19;2405183;28;45229;-81
2022/06/03 05:09:56;;;;;;;;;5.00;5.00;;;;;18.99;43.44;101244.25;2412211;28;46484;-82
2022/06/03 05:11:21;;;;;;;;;4.75;4.75;;;;;19.02;43.81;101237.88;2411665;28;44606;-81
2022/06/03 05:12:47;;;;;;;;;5.00;5.00;;;;;19.06;43.38;101234.06;2416000;28;47441;-82
2022/06/03 05:14:13;;;;;;;;;4.25;4.25;;;;;19.08;43.39;101236.66;2403670;28;44838;-82
2022/06/03 05:15:57;;;;;;;;;5.00;5.00;;;;;19.10;43.04;101227.63;2406476;28;48614;-81
2022/06/03 05:17:16;;;;;;;;;4.00;4.00;;;;;19.12;43.32;101227.50;2400794;28;45399;-81
2022/06/03 05:19:01;;;;;;;;;5.25;4.75;;;;;19.16;43.01;101238.84;2410700;28;45436;-81
2022/06/03 05:20:27;;;;;;;;;9.25;4.50;;;;;19.16;42.78;101238.84;2402596;28;45409;-81
2022/06/03 05:21:58;;;;;;;;;6.00;5.00;;;;;19.17;43.20;101235.22;2408877;28;46122;-81
2022/06/03 05:23:30;;;;;;;;;5.50;5.00;;;;;19.15;42.86;101237.97;2405740;28;45439;-81
2022/06/03 05:24:52;;;;;;;;;3.50;2.75;;;;;19.18;43.94;101239.63;2405470;28;45413;-81
2022/06/03 05:26:33;;;;;;;;;6.25;5.00;;;;;19.22;43.55;101241.16;2402582;28;45316;-81
2022/06/03 05:28:08;;;;;;;;;7.75;5.50;;;;;19.26;44.50;101244.50;2405593;28;47225;-81
2022/06/03 05:29:30;;;;;;;;;4.00;3.00;;;;;19.25;42.95;101246.28;2403474;28;45257;-81
2022/06/03 05:30:56;;;;;;;;;5.75;5.00;;;;;19.26;43.20;101239.16;2395593;28;47574;-81
2022/06/03 05:32:16;;;;;;;;;5.25;5.25;;;;;19.26;42.97;101239.16;2402857;28;45253;-81
2022/06/03 05:33:44;;;;;;;;;5.00;5.00;;;;;19.26;42.80;101237.31;2405988;28;48210;-81
2022/06/03 05:35:27;;;;;;;;;6.00;6.00;;;;;19.27;43.09;101244.38;2404000;28;44765;-81
2022/06/03 05:37:13;;;;;;;;;5.50;5.50;;;;;19.27;43.09;101236.38;2362440;28;48212;-81
2022/06/03 05:38:35;;;;;;;;;7.00;6.50;;;;;19.29;42.64;101228.28;2400396;28;45406;-81
2022/06/03 05:40:17;;;;;;;;;6.00;5.75;;;;;19.29;42.91;101228.28;2403026;28;46594;-81
2022/06/03 05:43:27;;;;;;;;;4.00;4.00;;;;;19.31;43.08;101232.56;2395270;28;45190;-81
2022/06/03 05:45:02;;;;;;;;;6.00;5.50;;;;;19.28;43.02;101227.47;2402770;28;45225;-81
2022/06/03 05:46:45;;;;;;;;;6.75;6.25;;;;;19.26;42.82;101223.19;2400808;28;48250;-81
2022/06/03 05:48:37;;;;;;;;;5.00;5.00;;;;;19.29;43.07;101222.97;2398259;28;44764;-81
2022/06/03 05:50:07;;;;;;;;;5.00;5.00;;;;;19.30;43.28;101216.69;2398933;28;48482;-81
2022/06/03 05:51:37;;;;;;;;;8.00;5.00;;;;;19.31;42.82;101219.25;2400873;28;45201;-82
2022/06/03 05:53:17;;;;;;;;;6.50;5.50;;;;;19.30;43.11;101219.34;2401987;28;47385;-82
2022/06/03 05:54:54;;;;;;;;;6.50;6.25;;;;;19.29;42.96;101226.50;2400015;28;45325;-82
2022/06/03 05:56:38;;;;;;;;;6.00;6.00;;;;;19.29;42.96;101222.97;2401932;28;47298;-82
2022/06/03 05:58:07;;;;;;;;;4.25;4.25;;;;;19.30;43.70;101220.22;2401600;28;45482;-82
2022/06/03 05:59:29;;;;;;;;;6.25;6.00;;;;;19.35;43.21;101219.94;2421840;28;47425;-82
2022/06/03 06:00:58;;;;;;;;;7.00;5.75;;;;;19.35;43.51;101214.59;2411346;28;45501;-82
2022/06/03 06:02:17;;;;;;;;;5.00;5.00;;;;;19.39;43.52;101212.56;2400841;28;46630;-82
2022/06/03 06:03:55;;;;;;;;;7.50;6.25;;;;;19.43;43.49;101214.13;2403351;28;44659;-82
2022/06/03 06:05:16;;;;;;;;;11.00;5.25;;;;;19.46;43.30;101211.22;2402308;28;45706;-82
2022/06/03 06:06:34;;;;;;;;;6.50;5.50;;;;;19.50;43.36;101212.78;2402017;28;45596;-82
2022/06/03 06:08:03;;;;;;;;;6.25;6.25;;;;;19.53;43.22;101214.38;2403339;28;47237;-82
2022/06/03 06:09:43;;;;;;;;;7.00;7.00;;;;;19.56;43.65;101211.50;2395518;28;45598;-82
2022/06/03 06:11:19;;;;;;;;;5.75;5.75;;;;;19.60;43.80;101217.50;2400055;28;46295;-82
2022/06/03 06:12:52;;;;;;;;;7.25;6.25;;;;;19.64;43.73;101221.69;2403950;28;45468;-81
2022/06/03 06:14:31;;;;;;;;;6.50;5.75;;;;;19.66;42.99;101230.44;2402573;28;46329;-81
2022/06/03 06:16:07;;;;;;;;;8.75;6.75;;;;;19.65;43.43;101231.41;2411569;28;45447;-82
2022/06/03 06:17:17;;;;;;;;;5.00;5.00;;;;;19.64;43.17;101222.53;2404612;28;45573;-82
2022/06/03 06:18:54;;;;;;;;;9.25;5.50;;;;;19.65;43.56;101221.59;2402772;28;45447;-82
2022/06/03 06:20:31;;;;;;;;;7.00;5.50;;;;;19.66;43.35;101225.09;2402012;28;45447;-83
2022/06/03 06:22:03;;;;;;;;;7.75;7.00;;;;;19.66;43.84;101220.63;2380939;28;45468;-83
2022/06/03 06:23:28;;;;;;;;;6.00;5.00;;;;;19.69;43.61;101222.25;2403914;28;47080;-82
2022/06/03 06:24:56;;;;;;;;;6.50;6.50;;;;;19.68;43.69;101218.72;2400529;28;45369;-81
2022/06/03 06:26:37;;;;;;;;;6.25;6.00;;;;;19.70;43.68;101223.97;2397057;28;45661;-82
2022/06/03 06:27:58;;;;;;;;;6.00;6.00;;;;;19.72;43.96;101226.53;2399507;28;44782;-82
2022/06/03 06:29:36;;;;;;;;;6.00;6.00;;;;;19.73;43.90;101226.41;2402300;28;46549;-82
2022/06/03 06:31:00;;;;;;;;;8.75;6.50;;;;;19.75;43.70;101221.00;2402425;28;44714;-82
2022/06/03 06:32:23;;;;;;;;;7.00;7.00;;;;;19.75;43.65;101221.88;2402328;28;46738;-82
2022/06/03 06:33:54;;;;;;;;;7.00;7.00;;;;;19.75;43.89;101223.66;2403013;28;45150;-82
2022/06/03 06:35:36;;;;;;;;;4.50;4.50;;;;;19.75;44.14;101227.19;2417687;28;46986;-81
2022/06/03 06:37:02;;;;;;;;;7.00;7.00;;;;;19.74;43.76;101214.81;2407572;28;45514;-82
2022/06/03 06:38:33;;;;;;;;;5.25;5.25;;;;;19.81;44.06;101225.06;2401715;28;47312;-82
2022/06/03 06:39:46;;;;;;;;;6.75;6.00;;;;;19.79;43.84;101219.84;2399663;28;45212;-82
2022/06/03 06:40:59;;;;;;;;;5.75;5.75;;;;;19.81;43.75;101217.06;2402900;28;45320;-82
2022/06/03 06:42:33;;;;;;;;;8.25;6.25;;;;;19.83;44.23;101217.84;2402346;28;45376;-83
2022/06/03 06:43:51;;;;;;;;;11.25;8.00;;;;;19.86;44.20;101223.81;2399239;28;46767;-82
2022/06/03 06:45:21;;;;;;;;;7.50;6.50;;;;;19.89;44.37;101225.44;2399586;28;45225;-82
2022/06/03 06:46:54;;;;;;;;;8.75;7.50;;;;;19.92;44.15;101214.56;2402785;28;45604;-82
2022/06/03 06:48:26;;;;;;;;;9.25;6.75;;;;;19.97;44.03;101219.59;2402122;28;45184;-82
2022/06/03 06:49:46;;;;;;;;;7.50;7.50;;;;;20.02;44.09;101223.69;2397209;28;47380;-82
2022/06/03 06:51:03;;;;;;;;;6.00;6.00;;;;;20.06;44.04;101219.00;2401563;28;45350;-83
2022/06/03 06:52:35;;;;;;;;;9.00;7.00;;;;;20.11;44.13;101214.25;2402090;28;45581;-82
2022/06/03 06:53:53;;;;;;;;;5.75;5.75;;;;;20.12;44.34;101202.59;2402155;28;45528;-82
2022/06/03 06:55:24;;;;;;;;;8.00;6.25;;;;;20.19;44.02;101203.06;2402403;28;45537;-82
2022/06/03 06:56:46;;;;;;;;;7.75;6.50;;;;;20.23;43.92;101206.38;2402879;28;45178;-82
2022/06/03 06:58:01;;;;;;;;;7.50;5.50;;;;;20.24;43.89;101206.28;2407848;28;47286;-82
2022/06/03 06:59:35;;;;;;;;;8.25;6.75;;;;;20.28;43.92;101204.25;2407051;28;45515;-81
2022/06/03 07:00:49;;;;;;;;;21.25;19.00;;;;;20.31;43.97;101204.03;2402300;28;45641;-82
2022/06/03 07:02:11;;;;;;;;;7.75;7.75;;;;;20.33;44.15;101210.13;2404069;28;45427;-82
2022/06/03 07:03:30;;;;;;;;;7.25;6.25;;;;;20.38;44.55;101208.97;2406692;28;48254;-81
2022/06/03 07:04:56;;;;;;;;;7.00;6.00;;;;;20.41;44.38;101201.59;2402510;28;45326;-82
2022/06/03 07:06:15;;;;;;;;;6.50;6.50;;;;;20.44;44.63;101209.41;2398208;28;47363;-82
2022/06/03 07:07:40;;;;;;;;;8.75;7.75;;;;;20.52;44.01;101202.69;2406949;28;45337;-82
2022/06/03 07:09:12;;;;;;;;;7.25;7.25;;;;;20.52;43.93;101200.03;2405472;28;45506;-82
2022/06/03 07:10:22;;;;;;;;;8.50;8.00;;;;;20.56;43.79;101199.72;2412949;28;45154;-82
2022/06/03 07:12:02;;;;;;;;;10.00;8.00;;;;;20.56;43.84;101193.50;2412720;28;46593;-82
2022/06/03 07:13:24;;;;;;;;;7.00;6.00;;;;;20.55;43.82;101195.31;2396049;28;44845;-82
2022/06/03 07:14:51;;;;;;;;;7.25;7.00;;;;;20.56;43.94;101197.03;2401504;28;47071;-82
2022/06/03 07:20:30;;;;;;;;;7.00;7.00;;;;;20.70;43.88;101197.91;2402872;28;45263;-81
2022/06/03 07:22:08;;;;;;;;;8.25;7.00;;;;;20.73;44.22;101191.47;2398354;28;46301;-81
2022/06/03 07:23:33;;;;;;;;;7.75;6.75;;;;;20.78;44.41;101200.03;2402678;28;45437;-82
2022/06/03 07:24:59;;;;;;;;;6.00;6.00;;;;;20.81;43.58;101199.84;2401972;28;47197;-82
2022/06/03 07:26:29;;;;;;;;;12.25;9.25;;;;;20.87;44.14;101206.53;2403979;28;45353;-82
2022/06/03 07:27:42;;;;;;;;;9.25;8.25;;;;;20.90;43.98;101209.88;2418750;28;47229;-81
2022/06/03 07:29:09;;;;;;;;;6.75;5.25;;;;;20.92;43.95;101215.94;2417985;28;45494;-81
2022/06/03 07:30:26;;;;;;;;;8.50;6.00;;;;;20.96;43.94;101218.41;2404633;28;45455;-81
2022/06/03 07:31:45;;;;;;;;;13.25;10.00;;;;;21.00;43.77;101217.22;2402407;28;44753;-82
2022/06/03 07:33:01;;;;;;;;;7.50;7.00;;;;;21.06;43.38;101214.19;2400999;28;45555;-81
2022/06/03 07:34:21;;;;;;;;;9.50;8.25;;;;;21.10;44.11;101218.34;2403539;28;45506;-82
2022/06/03 07:35:58;;;;;;;;;8.25;6.75;;;;;21.14;43.94;101222.50;2401736;28;45596;-82
2022/06/03 07:37:17;;;;;;;;;7.00;7.00;;;;;21.19;43.93;101213.28;2404090;28;45297;-82
2022/06/03 07:38:54;;;;;;;;;6.75;6.75;;;;;21.21;43.41;101222.06;2406638;28;47458;-81
2022/06/03 07:40:15;;;;;;;;;7.00;7.00;;;;;21.25;42.63;101207.50;2404297;28;44852;-81
2022/06/03 07:41:43;;;;;;;;;7.75;7.50;;;;;21.27;43.20;101210.06;2399955;28;47038;-83
2022/06/03 07:43:06;;;;;;;;;12.75;9.25;;;;;21.29;43.57;101203.66;2407303;28;45241;-82
2022/06/03 07:44:25;;;;;;;;;6.75;6.75;;;;;21.30;43.94;101208.03;2405281;28;45605;-82
2022/06/03 07:45:41;;;;;;;;;8.00;7.25;;;;;21.31;43.50;101209.72;2409599;28;45205;-82
2022/06/03 07:47:00;;;;;;;;;8.00;7.50;;;;;21.33;42.84;101215.84;2403280;28;45486;-82
2022/06/03 07:48:23;;;;;;;;;8.75;8.75;;;;;21.37;43.76;101221.81;2415759;28;44789;-81
2022/06/03 07:49:37;;;;;;;;;8.75;7.00;;;;;21.39;43.52;101222.56;2417453;28;46049;-82
2022/06/03 07:51:17;;;;;;;;;8.00;8.00;;;;;21.44;43.80;101222.22;2417504;28;45284;-82
2022/06/03 07:52:36;;;;;;;;;6.25;6.25;;;;;21.46;43.39;101221.16;2402012;28;46355;-81
2022/06/03 07:53:54;;;;;;;;;8.50;8.00;;;;;21.48;43.14;101218.38;2417473;28;44781;-82
2022/06/03 07:55:12;;;;;;;;;7.00;7.00;;;;;21.50;43.85;101216.44;2411115;28;45418;-81
2022/06/03 07:56:26;;;;;;;;;8.50;7.75;;;;;21.51;43.18;101222.66;2403082;28;45528;-81
2022/06/03 07:57:37;;;;;;;;;9.00;8.00;;;;;21.52;43.71;101221.69;2407454;28;46289;-81
2022/06/03 07:58:51;;;;;;;;;7.50;7.50;;;;;21.51;43.71;101219.97;2404020;28;44717;-82
2022/06/03 08:00:06;;;;;;;;;8.25;6.25;;;;;21.53;44.09;101224.22;2408195;28;46271;-82
2022/06/03 08:01:27;;;;;;;;;5.75;5.00;;;;;21.55;43.92;101219.66;2411189;28;45356;-82
2022/06/03 08:02:38;;;;;;;;;1.00;0.50;;;;;21.57;44.11;101217.72;2404207;28;47457;-81
2022/06/03 08:03:48;;;;;;;;;7.00;7.00;;;;;21.57;43.28;101217.72;2402141;28;46262;-81
2022/06/03 08:05:04;;;;;;;;;8.00;8.00;;;;;21.58;43.47;101211.38;2400843;28;46509;-81
2022/06/03 08:06:15;;;;;;;;;10.00;8.00;;;;;21.58;44.41;101214.06;2408330;28;45411;-81
2022/06/03 08:12:00;;;;;;;;;7.50;7.00;;;;;21.64;43.62;101217.25;2408160;28;44662;-82
2022/06/03 08:13:11;;;;;;;;;8.75;8.00;;;;;21.65;43.40;101214.47;2402294;28;46214;-82
2022/06/03 08:14:26;;;;;;;;;7.75;7.75;;;;;21.69;43.77;101210.59;2409423;28;45356;-82
2022/06/03 08:15:40;;;;;;;;;8.50;8.50;;;;;21.73;43.66;101213.91;2406555;28;45434;-82
2022/06/03 08:16:50;;;;;;;;;11.25;10.75;;;;;21.76;44.06;101213.69;2400311;28;44674;-82
2022/06/03 08:18:05;;;;;;;;;8.00;7.00;;;;;21.80;43.38;101212.47;2427240;28;46892;-82
2022/06/03 08:19:18;;;;;;;;;8.00;8.00;;;;;21.83;43.98;101211.41;2405272;28;45276;-82
2022/06/03 08:20:29;;;;;;;;;10.25;9.00;;;;;21.85;43.49;101205.94;2415062;28;47206;-81
2022/06/03 08:21:43;;;;;;;;;10.00;9.00;;;;;21.87;43.36;101212.06;2405368;28;45471;-83
2022/06/03 08:22:55;;;;;;;;;9.00;8.00;;;;;21.85;43.13;101206.81;2402446;28;45572;-82
2022/06/03 08:24:10;;;;;;;;;8.00;8.00;;;;;21.86;43.58;101197.84;2406255;28;45285;-82
2022/06/03 08:25:26;;;;;;;;;9.75;9.25;;;;;21.85;43.53;101208.63;2401730;28;45491;-82
2022/06/03 08:26:39;;;;;;;;;11.50;8.75;;;;;21.81;43.77;101200.81;2411432;28;44712;-82
2022/06/03 08:27:51;;;;;;;;;10.50;8.25;;;;;21.79;43.33;101200.09;2410406;28;45375;-82
2022/06/03 08:29:06;;;;;;;;;8.50;7.25;;;;;21.78;43.95;101205.56;2411093;28;44734;-82
2022/06/03 08:30:23;;;;;;;;;7.50;6.75;;;;;21.76;44.14;101211.00;2396958;28;46991;-82
2022/06/03 08:31:35;;;;;;;;;9.00;7.00;;;;;21.78;43.72;101208.22;2414054;28;45458;-82
2022/06/03 08:33:08;;;;;;;;;7.75;7.75;;;;;21.80;44.29;101201.78;2426447;28;48192;-82
2022/06/03 08:34:25;;;;;;;;;8.50;7.75;;;;;21.86;44.39;101210.31;2401225;28;44622;-83
2022/06/03 08:35:41;;;;;;;;;8.50;8.25;;;;;21.87;44.19;101199.56;2406705;28;45731;-81
2022/06/03 08:36:53;;;;;;;;;12.00;8.00;;;;;21.91;44.17;101202.84;2402804;28;45343;-82
2022/06/03 08:38:11;;;;;;;;;7.25;7.25;;;;;21.91;44.41;101201.03;2416056;28;48646;-82
2022/06/03 08:39:29;;;;;;;;;9.25;9.25;;;;;21.93;44.20;101195.53;2413873;28;45392;-82
2022/06/03 08:41:02;;;;;;;;;11.75;9.00;;;;;21.94;44.17;101191.91;2411857;28;46267;-82
2022/06/03 08:42:22;;;;;;;;;8.50;8.50;;;;;21.98;44.01;101187.16;2407966;28;45550;-82
2022/06/03 08:43:35;;;;;;;;;9.00;8.75;;;;;22.01;44.33;101193.16;2401278;28;45376;-82
2022/06/03 08:45:10;;;;;;;;;9.50;8.50;;;;;22.07;44.51;101191.84;2402305;28;44628;-82
2022/06/03 08:46:26;;;;;;;;;9.25;9.25;;;;;22.12;44.89;101189.69;2401665;28;45485;-82
2022/06/03 08:47:47;;;;;;;;;9.25;9.25;;;;;22.16;44.71;101190.28;2401640;28;45434;-82
2022/06/03 08:49:06;;;;;;;;;9.25;9.00;;;;;22.20;44.83;101186.41;2408132;28;45932;-82
2022/06/03 08:50:32;;;;;;;;;9.50;8.00;;;;;22.23;43.64;101186.19;2402590;28;45169;-82
2022/06/03 08:51:47;;;;;;;;;12.75;11.25;;;;;22.26;44.46;101183.28;2401458;28;46204;-81
2022/06/03 08:53:33;;;;;;;;;10.25;8.25;;;;;22.30;44.37;101180.38;2402061;28;45205;-82
2022/06/03 08:54:53;;;;;;;;;8.00;8.00;;;;;22.31;44.59;101174.91;2401167;28;45798;-81
2022/06/03 08:56:24;;;;;;;;;11.00;10.00;;;;;22.33;44.52;101177.44;2415883;28;45375;-81
2022/06/03 08:57:45;;;;;;;;;8.00;8.00;;;;;22.34;44.62;101171.13;2406140;28;45616;-81
2022/06/03 08:58:58;;;;;;;;;9.75;8.75;;;;;22.34;44.18;101172.00;2402166;28;44552;-81
2022/06/03 09:00:14;;;;;;;;;8.00;7.00;;;;;22.35;43.92;101178.16;2401666;28;45628;-81
2022/06/03 09:01:36;;;;;;;;;2.00;0.00;;;;;22.37;44.89;101176.25;2401772;28;45327;-81
2022/06/03 09:03:11;;;;;;;;;12.75;8.25;;;;;22.40;44.20;101180.53;2418316;28;48079;-82
2022/06/03 09:04:22;;;;;;;;;12.25;10.25;;;;;22.44;44.11;101179.31;2406002;28;45240;-82
2022/06/03 09:05:41;;;;;;;;;7.50;7.25;;;;;22.48;44.94;101173.59;2393639;28;46847;-82
2022/06/03 09:07:10;;;;;;;;;9.25;9.00;;;;;22.54;44.95;101184.81;2401559;28;45710;-82
2022/06/03 09:08:54;;;;;;;;;11.00;9.75;;;;;22.56;44.33;101185.53;2398594;28;45601;-82
2022/06/03 09:10:14;;;;;;;;;12.25;8.75;;;;;22.55;44.84;101176.63;2404961;28;44849;-82
2022/06/03 09:11:33;;;;;;;;;11.00;9.25;;;;;22.56;44.49;101178.34;2403186;28;45323;-82
2022/06/03 09:13:15;;;;;;;;;9.25;9.25;;;;;22.62;43.83;101178.84;2405954;28;44769;-82
2022/06/03 09:14:27;;;;;;;;;9.25;8.00;;;;;22.65;44.69;101174.09;2401206;28;46639;-83
2022/06/03 09:15:43;;;;;;;;;8.00;7.50;;;;;22.67;44.08;101182.00;2402258;28;45254;-82
2022/06/03 09:17:01;;;;;;;;;8.00;7.00;;;;;22.70;44.31;101181.81;2396521;28;47249;-82
2022/06/03 09:18:19;;;;;;;;;9.25;9.25;;;;;22.73;43.87;101180.72;2396535;28;45565;-82
2022/06/03 09:19:40;;;;;;;;;9.75;8.25;;;;;22.77;43.77;101188.38;2400531;28;45500;-82
2022/06/03 09:20:56;;;;;;;;;12.00;9.25;;;;;22.80;44.96;101189.97;2401780;28;44749;-81
2022/06/03 09:22:15;;;;;;;;;10.75;9.00;;;;;22.83;44.76;101192.41;2395948;28;48202;-81
2022/06/03 09:23:27;;;;;;;;;14.25;10.75;;;;;22.84;44.59;101188.75;2396846;28;45396;-81
2022/06/03 09:24:41;;;;;;;;;9.50;9.50;;;;;22.87;44.88;101188.50;2394015;28;47433;-81
2022/06/03 09:25:55;;;;;;;;;8.75;8.50;;;;;22.90;43.68;101193.66;2401243;28;45795;-81
2022/06/03 09:27:08;;;;;;;;;9.00;7.50;;;;;22.92;43.29;101194.38;2413507;28;47334;-82
2022/06/03 09:28:25;;;;;;;;;8.00;8.00;;;;;22.95;42.98;101204.00;2424391;28;45480;-82
2022/06/03 09:29:36;;;;;;;;;13.00;11.00;;;;;22.95;43.69;101206.69;2392186;28;46567;-82
2022/06/03 09:30:47;;;;;;;;;9.75;9.00;;;;;22.96;42.30;101220.94;2404892;28;45538;-82
2022/06/03 09:32:04;;;;;;;;;10.00;8.25;;;;;22.94;42.91;101231.75;2406183;28;45301;-82
2022/06/03 09:33:18;;;;;;;;;10.00;9.00;;;;;22.89;42.28;101245.53;2406583;28;45189;-82
2022/06/03 09:34:41;;;;;;;;;9.00;9.00;;;;;22.83;42.58;101235.28;2414723;28;47917;-81
2022/06/03 09:35:57;;;;;;;;;8.50;8.50;;;;;22.79;43.38;101233.84;2404245;28;45730;-82
2022/06/03 09:37:14;;;;;;;;;8.00;8.00;;;;;22.75;43.18;101235.03;2401805;28;45987;-82
2022/06/03 09:38:29;;;;;;;;;9.00;7.50;;;;;22.73;42.74;101228.94;2411777;28;45198;-82
2022/06/03 09:39:44;;;;;;;;;7.25;7.25;;;;;22.67;42.74;101217.69;2406933;28;46505;-82
2022/06/03 09:40:59;;;;;;;;;9.00;9.00;;;;;22.66;42.70;101232.06;2412048;28;45328;-82
2022/06/03 09:42:14;;;;;;;;;9.25;8.75;;;;;22.64;43.24;101236.69;2406485;28;45409;-81
2022/06/03 09:43:34;;;;;;;;;9.25;9.25;;;;;22.63;43.24;101244.84;2401854;28;45377;-82
2022/06/03 09:44:48;;;;;;;;;9.25;9.25;;;;;22.63;44.26;101253.72;2405100;28;48119;-81
2022/06/03 09:46:01;;;;;;;;;8.00;8.00;;;;;22.64;43.09;101242.06;2403518;28;45552;-81
2022/06/03 09:47:16;;;;;;;;;8.00;8.00;;;;;22.67;44.94;101232.91;2397239;28;46292;-82
2022/06/03 09:48:34;;;;;;;;;12.00;11.00;;;;;22.68;44.23;101227.44;2407037;28;44674;-81
2022/06/03 09:49:48;;;;;;;;;12.00;9.75;;;;;22.72;43.39;101229.94;2393316;28;46280;-81
2022/06/03 09:51:09;;;;;;;;;10.75;10.50;;;;;22.73;43.17;101234.28;2399686;28;45360;-81
2022/06/03 09:52:23;;;;;;;;;9.50;6.75;;;;;22.72;43.10;101236.13;2420348;28;47023;-81
2022/06/03 09:53:36;;;;;;;;;3.00;3.00;;;;;22.71;43.17;101231.75;2421942;28;45288;-81
2022/06/03 09:54:47;;;;;;;;;9.50;8.00;;;;;22.69;43.49;101221.13;2413452;28;47684;-81
2022/06/03 09:56:02;;;;;;;;;9.50;8.25;;;;;22.68;43.13;101230.13;2410385;28;45640;-81
2022/06/03 09:57:16;;;;;;;;;8.75;8.75;;;;;22.67;42.98;101227.53;2401575;28;47018;-80
2022/06/03 09:58:32;;;;;;;;;8.00;8.00;;;;;22.65;42.81;101240.22;2402799;28;44643;-81
2022/06/03 09:59:54;;;;;;;;;10.00;10.00;;;;;22.62;43.22;101240.47;2372590;28;1160949;-80
2022/06/03 10:01:09;;;;;;;;;9.00;9.00;;;;;22.62;42.99;101238.63;2422341;28;45446;-81
2022/06/03 10:02:19;;;;;;;;;8.25;7.75;;;;;22.60;43.50;101236.06;2415262;28;46852;-81
2022/06/03 10:03:30;;;;;;;;;9.00;9.00;;;;;22.60;44.58;101229.84;2410243;28;45345;-81
2022/06/03 10:04:40;;;;;;;;;12.25;9.25;;;;;22.63;44.88;101226.09;2412999;28;46191;-82
2022/06/03 10:05:54;;;;;;;;;12.50;11.25;;;;;22.63;45.01;101218.06;2406130;28;45426;-81
2022/06/03 10:07:05;;;;;;;;;10.50;9.25;;;;;22.65;44.13;101219.63;2411874;28;47546;-81
2022/06/03 10:08:20;;;;;;;;;9.50;9.50;;;;;22.67;44.01;101215.00;2408645;28;44702;-81
2022/06/03 10:12:52;;;;;;;;;11.75;11.25;;;;;22.75;46.16;101202.88;2400627;28;45786;-81
2022/06/03 10:14:03;;;;;;;;;9.75;9.00;;;;;22.78;43.75;101205.31;2421045;28;45319;-81
2022/06/03 10:16:43;;;;;;;;;10.00;10.00;;;;;22.79;44.16;101202.50;2403146;28;45279;-81
2022/06/03 10:18:00;;;;;;;;;9.00;9.00;;;;;22.82;44.29;101207.63;2402361;28;48369;-81
2022/06/03 10:19:11;;;;;;;;;15.00;12.00;;;;;22.83;46.06;101200.47;2400813;28;45542;-82
2022/06/03 10:20:21;;;;;;;;;11.25;10.00;;;;;22.88;44.42;101205.47;2401445;28;46314;-81
2022/06/03 10:21:32;;;;;;;;;12.00;11.00;;;;;22.91;44.97;101199.88;2420960;28;44957;-82
2022/06/03 10:22:48;;;;;;;;;12.25;12.25;;;;;22.95;45.85;101201.31;2415272;28;45427;-81
2022/06/03 10:24:02;;;;;;;;;10.50;10.50;;;;;23.00;47.20;101204.50;2402287;28;45478;-81
2022/06/03 10:25:12;;;;;;;;;13.00;12.00;;;;;23.04;47.05;101200.59;2402463;28;46269;-82
2022/06/03 10:26:27;;;;;;;;;14.50;13.25;;;;;23.11;47.52;101200.94;2402146;28;45531;-82
2022/06/03 10:27:38;;;;;;;;;16.50;12.75;;;;;23.14;47.28;101198.03;2420909;28;47031;-81
2022/06/03 10:28:51;;;;;;;;;12.25;12.00;;;;;23.21;47.22;101202.91;2414321;28;44770;-80
2022/06/03 10:30:05;;;;;;;;;12.25;10.50;;;;;23.26;47.78;101206.06;2402680;28;46203;-81
2022/06/03 10:31:18;;;;;;;;;13.00;10.75;;;;;23.32;47.09;101208.25;2403684;28;44694;-81
2022/06/03 10:32:29;;;;;;;;;14.00;12.50;;;;;23.36;47.65;101204.34;2402464;28;46511;-81
2022/06/03 10:33:50;;;;;;;;;12.00;11.25;;;;;23.42;47.59;101207.50;2403363;28;44673;-81
2022/06/03 10:35:16;;;;;;;;;11.00;11.00;;;;;23.47;47.00;101207.97;2411547;28;49481;-80
2022/06/03 10:36:37;;;;;;;;;13.75;12.25;;;;;23.52;47.25;101208.50;2402098;28;45462;-81
2022/06/03 10:37:57;;;;;;;;;10.75;10.00;;;;;23.54;46.84;101208.38;2408697;28;47161;-81
2022/06/03 10:39:13;;;;;;;;;13.75;12.75;;;;;23.57;47.38;101189.34;2417201;28;45573;-81
2022/06/03 10:40:26;;;;;;;;;12.75;12.75;;;;;23.60;47.36;101194.47;2407320;28;48286;-81
2022/06/03 10:41:43;;;;;;;;;16.00;12.00;;;;;23.64;47.11;101201.28;2396115;28;45257;-82
2022/06/03 10:42:56;;;;;;;;;11.00;9.25;;;;;23.68;46.62;101201.88;2399827;28;45495;-81
2022/06/03 10:44:18;;;;;;;;;15.25;15.00;;;;;23.73;46.90;101198.81;2416975;28;44769;-81
2022/06/03 10:45:32;;;;;;;;;20.75;17.50;;;;;23.77;46.86;101206.50;2406683;28;45412;-81
2022/06/03 10:46:54;;;;;;;;;10.50;9.00;;;;;23.82;45.88;101204.28;2402926;28;45261;-81
2022/06/03 10:48:22;;;;;;;;;12.50;12.00;;;;;23.87;45.80;101209.25;2399933;28;48350;-81
2022/06/03 10:49:48;;;;;;;;;14.50;12.00;;;;;23.90;45.90;101213.53;2403500;28;44695;-81
2022/06/03 11:01:06;;;;;;;;;14.00;14.00;;;;;23.93;45.73;101210.56;2402746;28;47167;-81
2022/06/03 11:02:14;;;;;;;;;13.00;11.50;;;;;23.94;47.20;101212.28;2408077;28;45351;-81
2022/06/03 11:03:28;;;;;;;;;10.50;10.00;;;;;23.98;44.99;101219.09;2424794;28;47059;-81
2022/06/03 11:04:39;;;;;;;;;12.00;12.00;;;;;23.99;45.14;101214.59;2414789;28;45478;-81
2022/06/03 11:05:49;;;;;;;;;11.25;10.25;;;;;23.98;45.00;101221.78;2404551;28;47380;-81
2022/06/03 11:07:05;;;;;;;;;13.25;12.25;;;;;23.94;45.13;101223.88;2397136;28;45279;-81
2022/06/03 11:08:15;;;;;;;;;10.00;9.00;;;;;23.93;44.43;101226.69;2402804;28;46090;-81
2022/06/03 11:09:26;;;;;;;;;12.00;11.00;;;;;23.91;44.25;101239.38;2406071;28;44730;-81
2022/06/03 11:10:39;;;;;;;;;10.25;9.75;;;;;23.88;45.01;101231.59;2403521;28;46296;-81
2022/06/03 11:11:57;;;;;;;;;11.50;11.25;;;;;23.86;44.51;101238.91;2402815;28;45336;-81
2022/06/03 11:13:09;;;;;;;;;9.50;9.50;;;;;23.83;44.85;101235.50;2402371;28;47333;-81
2022/06/03 11:14:23;;;;;;;;;12.50;11.50;;;;;23.80;44.65;101237.59;2398547;28;45762;-81
2022/06/03 11:15:40;;;;;;;;;12.00;10.75;;;;;23.75;44.48;101237.13;2402597;28;45454;-81
2022/06/03 11:17:03;;;;;;;;;10.25;10.25;;;;;23.71;46.84;101249.91;2410202;28;44781;-81
2022/06/03 11:18:20;;;;;;;;;11.25;11.00;;;;;23.67;44.87;101248.47;2418933;28;47001;-81
2022/06/03 11:19:46;;;;;;;;;13.00;10.50;;;;;23.62;44.33;101250.66;2413966;28;45541;-81
2022/06/03 11:21:14;;;;;;;;;12.50;11.75;;;;;23.56;44.27;101252.88;2402723;28;45447;-81
2022/06/03 11:22:35;;;;;;;;;10.50;10.50;;;;;23.46;45.08;101247.34;2402245;28;45204;-81
2022/06/03 11:23:46;;;;;;;;;10.00;10.00;;;;;23.43;44.71;101252.13;2402666;28;45542;-81
2022/06/03 11:25:26;;;;;;;;;14.00;11.00;;;;;23.41;45.11;101248.72;2411279;28;44734;-81
2022/06/03 11:26:45;;;;;;;;;11.50;10.00;;;;;23.38;44.97;101249.81;2400076;28;47968;-81
2022/06/03 11:28:04;;;;;;;;;9.25;9.00;;;;;23.34;44.83;101249.19;2400860;28;44590;-81
2022/06/03 11:29:25;;;;;;;;;10.50;10.50;;;;;23.31;45.16;101249.44;2402375;28;46414;-81
2022/06/03 11:30:39;;;;;;;;;11.75;10.75;;;;;23.27;45.56;101254.22;2393753;28;45209;-81
2022/06/03 11:31:53;;;;;;;;;12.50;12.50;;;;;23.24;45.05;101248.22;2401390;28;46136;-81
2022/06/03 11:33:12;;;;;;;;;11.50;11.25;;;;;23.22;45.84;101251.03;2411922;28;44860;-81
2022/06/03 11:34:39;;;;;;;;;10.50;10.00;;;;;23.21;45.58;101257.34;2400229;28;46663;-80
2022/06/03 11:35:57;;;;;;;;;11.50;11.50;;;;;23.15;45.23;101249.81;2400284;28;45395;-81
2022/06/03 11:37:15;;;;;;;;;11.50;10.25;;;;;23.11;45.47;101248.38;2401373;28;47132;-81
2022/06/03 11:38:38;;;;;;;;;9.00;9.00;;;;;23.07;45.49;101242.38;2401980;28;45234;-81
2022/06/03 11:40:01;;;;;;;;;11.00;9.50;;;;;23.05;45.72;101249.69;2419675;28;48256;-81
2022/06/03 11:41:23;;;;;;;;;11.00;11.00;;;;;23.01;45.23;101248.22;2410574;28;45437;-81
2022/06/03 11:42:42;;;;;;;;;8.00;8.00;;;;;22.96;45.96;101248.59;2408497;28;45347;-81